Kofu, Japan
Current Conditions -  °F | °C
As of 6:58 PM on Tuesday 27 Jan 2015 (Local Time) from RJTY Reporting Station
Overcast Overcast  
Wind Chill: 41°   Ceiling: 4200
Heat Index: 47°   Visibility: 10mi
Dew Point: 32°   Wind: 16mph
Humidity: 55%   Direction: 10°N
Pressure: 29.82"   Gusts: NA
Location:  35.66°N, 138.57°E
Report Text: RJTY 270958Z AUTO 01014KT 10SM OVC042 09/00 A2982 RMK AO2 SLP105 T00851001
Loading
Personal Weather Stations






























Interactive Weather Map New forecast layout! Learn more

10-Day Weather Forecast

Advertisements
Track Severe Weather on mobile